This is the latest recevied weather packets stored in our database for station/object ENRA. If no packets are shown the sender has not sent any weather packets the latest 10 day(s).
| Time | Temp. | Humidity | Pressure | Rain* | Wind** | Luminosity | Snow |
|---|---|---|---|---|---|---|---|
| 1777746786 | 1.67° C | 86% | 1006 hPa | - | - | - | - |
| 1777744989 | 2.78° C | 80% | 1006 hPa | - | - | - | - |
| 1777743189 | 2.78° C | 80% | 1006 hPa | - | - | - | - |
| 1777741388 | 2.78° C | 80% | 1006 hPa | - | - | - | - |
| 1777739588 | 2.78° C | 86% | 1006 hPa | - | - | - | - |
| 1777737789 | 3.89° C | 80% | 1006 hPa | - | - | - | - |
| 1777735988 | 3.89° C | 75% | 1006 hPa | - | - | - | - |
| 1777734190 | 2.78° C | 86% | 1006 hPa | - | - | - | - |
| 1777732388 | 2.78° C | 86% | 1006 hPa | - | - | - | - |
| 1777730588 | 2.78° C | 86% | 1006 hPa | - | - | - | - |
| 1777728788 | 2.78° C | 86% | 1006 hPa | - | - | - | - |
| 1777726989 | 2.78° C | 86% | 1006 hPa | - | - | - | - |
| 1777725188 | 3.89° C | 80% | 1006 hPa | - | - | - | - |
| 1777723389 | 3.89° C | 80% | 1006 hPa | - | - | - | - |
| 1777721590 | 3.89° C | 80% | 1005 hPa | - | - | - | - |
| 1777719789 | 5.56° C | 60% | 1005 hPa | - | - | - | - |
| 1777717988 | 5.56° C | 60% | 1005 hPa | - | - | - | - |
| 1777716189 | 5.56° C | 60% | 1005 hPa | - | - | - | - |
| 1777714390 | 5° C | 75% | 1005 hPa | - | - | - | - |
| 1777712588 | 5° C | 70% | 1005 hPa | - | - | - | - |
| 1777710788 | 5° C | 70% | 1004 hPa | - | - | - | - |
| 1777708987 | 3.89° C | 80% | 1004 hPa | - | - | - | - |
| 1777707187 | 3.89° C | 80% | 1004 hPa | - | - | - | - |
| 1777705390 | 5° C | 75% | 1003 hPa | - | - | - | - |
| 1777703588 | 5° C | 75% | 1004 hPa | - | - | - | - |
* Rain since midnight (hover to see other rain measurements)
** Current wind speed in m/s (hover to see current wind gust speed)